Time;durP1;ratioP1;P1;durP2;ratioP2;P2;SDS_P1;SDS_P2;PMS_P1;PMS_P2;Temp;Humidity;BMP_temperature;BMP_pressure;BME280_temperature;BME280_humidity;BME280_pressure;Samples;Min_cycle;Max_cycle;Signal;HPM_P1;HPM_P2
2022/09/27 00:01:38;;;;;;;2.70;2.50;;;17.40;70.90;;;;;;5093482;28;20040;-83
2022/09/27 00:04:03;;;;;;;2.65;2.45;;;17.40;71.00;;;;;;5093136;28;20029;-84
2022/09/27 00:06:30;;;;;;;3.33;2.90;;;17.40;71.00;;;;;;5075280;28;20386;-83
2022/09/27 00:08:57;;;;;;;2.50;2.30;;;17.40;71.10;;;;;;5093419;28;20032;-84
2022/09/27 00:11:32;;;;;;;2.97;2.72;;;17.40;71.10;;;;;;5093120;28;20486;-84
2022/09/27 00:13:59;;;;;;;3.05;2.75;;;17.40;71.20;;;;;;5074878;28;20032;-84
2022/09/27 00:16:34;;;;;;;3.83;2.67;;;17.40;71.10;;;;;;5077549;28;20107;-84
2022/09/27 00:19:03;;;;;;;2.90;2.45;;;17.40;71.20;;;;;;5075620;28;20035;-84
2022/09/27 00:21:30;;;;;;;2.97;2.60;;;17.40;71.10;;;;;;5093629;28;20063;-83
2022/09/27 00:23:56;;;;;;;2.50;2.30;;;17.40;71.20;;;;;;5093801;28;20059;-82
2022/09/27 00:26:22;;;;;;;2.92;2.70;;;17.40;71.30;;;;;;5093694;28;20020;-84
2022/09/27 00:28:48;;;;;;;2.97;2.63;;;17.40;71.30;;;;;;5093752;28;20077;-84
2022/09/27 00:31:35;;;;;;;3.00;2.60;;;17.40;71.30;;;;;;5093522;28;20030;-83
2022/09/27 00:34:02;;;;;;;3.78;2.88;;;17.40;71.40;;;;;;5094060;28;20047;-83
2022/09/27 00:36:29;;;;;;;2.67;2.47;;;17.40;71.40;;;;;;5075704;28;20024;-83
2022/09/27 00:38:55;;;;;;;2.70;2.50;;;17.40;71.40;;;;;;5093254;28;20047;-82
2022/09/27 00:41:24;;;;;;;2.90;2.70;;;17.40;71.50;;;;;;5094078;28;20056;-84
2022/09/27 00:43:58;;;;;;;2.90;2.70;;;17.40;71.50;;;;;;5093354;28;20027;-85
2022/09/27 00:46:32;;;;;;;2.72;2.53;;;17.40;71.50;;;;;;5093717;28;20028;-83
2022/09/27 00:49:24;;;;;;;2.53;2.30;;;17.40;71.60;;;;;;5093466;28;20115;-84
2022/09/27 00:51:56;;;;;;;3.30;2.75;;;17.40;71.80;;;;;;5093819;28;20669;-84
2022/09/27 00:54:25;;;;;;;3.17;2.88;;;17.40;71.60;;;;;;5078407;28;20458;-84
2022/09/27 00:56:52;;;;;;;4.78;2.75;;;17.40;71.60;;;;;;5078168;28;20485;-83
2022/09/27 00:59:44;;;;;;;3.03;2.70;;;17.40;71.70;;;;;;5078165;28;20493;-82
2022/09/27 01:02:11;;;;;;;2.60;2.40;;;17.40;72.00;;;;;;5096586;28;20032;-83
2022/09/27 01:04:38;;;;;;;3.17;2.80;;;17.40;71.70;;;;;;5097184;28;20051;-83
2022/09/27 01:07:04;;;;;;;3.63;2.88;;;17.40;71.70;;;;;;5097352;28;20101;-83
2022/09/27 01:09:31;;;;;;;3.08;2.78;;;17.40;71.80;;;;;;5099254;28;20062;-84
2022/09/27 01:12:21;;;;;;;3.30;2.70;;;17.40;71.80;;;;;;5096989;28;20021;-83
2022/09/27 01:15:14;;;;;;;3.00;2.70;;;17.40;72.10;;;;;;5079174;28;20025;-82
2022/09/27 01:18:01;;;;;;;3.10;2.80;;;17.40;72.00;;;;;;5078825;28;20024;-84
2022/09/27 01:20:42;;;;;;;2.90;2.70;;;17.40;72.20;;;;;;5096720;28;20043;-83
2022/09/27 01:24:00;;;;;;;2.63;2.42;;;17.40;72.10;;;;;;5096769;28;20478;-83
2022/09/27 01:26:56;;;;;;;3.03;2.70;;;17.40;72.20;;;;;;5051330;28;20047;-83
2022/09/27 01:29:52;;;;;;;2.50;2.30;;;17.40;72.20;;;;;;5077899;28;20493;-83
2022/09/27 01:32:27;;;;;;;2.75;2.55;;;17.40;72.30;;;;;;5078123;28;20065;-83
2022/09/27 01:35:12;;;;;;;2.63;2.42;;;17.40;72.10;;;;;;5097009;28;20020;-83
2022/09/27 01:38:16;;;;;;;2.83;2.60;;;17.40;72.30;;;;;;5097031;28;20035;-83
2022/09/27 01:41:05;;;;;;;3.38;2.75;;;17.40;72.40;;;;;;5095511;28;20067;-83
2022/09/27 01:43:54;;;;;;;3.03;2.72;;;17.40;72.50;;;;;;5096844;28;20028;-83
2022/09/27 01:46:26;;;;;;;2.65;2.45;;;17.40;72.30;;;;;;5097551;28;20096;-84
2022/09/27 01:48:55;;;;;;;2.78;2.58;;;17.40;72.30;;;;;;5096681;28;20043;-83
2022/09/27 01:51:36;;;;;;;3.15;2.85;;;17.40;72.30;;;;;;5096142;28;20457;-83
2022/09/27 01:54:05;;;;;;;3.00;2.80;;;17.40;72.50;;;;;;5095698;28;20028;-84
2022/09/27 01:56:48;;;;;;;3.17;2.85;;;17.40;72.40;;;;;;5095310;28;20104;-82
2022/09/27 01:59:36;;;;;;;3.20;2.90;;;17.40;72.70;;;;;;5095511;28;20028;-83
2022/09/27 02:02:07;;;;;;;3.00;2.70;;;17.40;72.80;;;;;;5097699;28;20549;-83
2022/09/27 02:04:37;;;;;;;3.28;2.97;;;17.40;72.50;;;;;;5095442;28;20111;-84
2022/09/27 02:07:19;;;;;;;3.17;2.88;;;17.40;72.60;;;;;;5095805;28;20081;-82
2022/09/27 02:09:55;;;;;;;3.33;3.03;;;17.40;72.80;;;;;;5095395;28;20028;-82
2022/09/27 02:12:26;;;;;;;3.53;2.95;;;17.40;72.80;;;;;;5076729;28;20028;-83
2022/09/27 02:14:56;;;;;;;3.22;2.83;;;17.40;72.70;;;;;;5077126;28;21105;-79
2022/09/27 02:17:38;;;;;;;3.22;2.80;;;17.40;72.80;;;;;;5077160;28;20412;-79
2022/09/27 02:20:23;;;;;;;3.20;2.90;;;17.40;72.80;;;;;;5096002;28;20382;-83
2022/09/27 02:23:11;;;;;;;3.20;2.90;;;17.40;73.00;;;;;;5095546;28;20111;-83
2022/09/27 02:26:01;;;;;;;3.10;2.90;;;17.40;72.90;;;;;;5096016;28;20374;-83
2022/09/27 02:28:32;;;;;;;3.20;2.90;;;17.40;72.90;;;;;;5095884;28;20016;-83
2022/09/27 02:30:58;;;;;;;3.40;3.10;;;17.40;73.00;;;;;;5077278;28;20081;-83
2022/09/27 02:33:36;;;;;;;3.30;3.00;;;17.40;73.00;;;;;;5095720;28;20028;-83
2022/09/27 02:36:02;;;;;;;3.05;2.75;;;17.40;73.20;;;;;;5077511;28;20028;-83
2022/09/27 02:38:27;;;;;;;3.75;3.13;;;17.40;73.10;;;;;;5094682;28;20359;-83
2022/09/27 02:40:53;;;;;;;3.63;3.20;;;17.40;73.20;;;;;;5094626;28;20028;-83
2022/09/27 02:43:23;;;;;;;3.40;3.10;;;17.40;73.20;;;;;;5094674;28;20020;-83
2022/09/27 02:46:19;;;;;;;3.28;2.97;;;17.40;73.30;;;;;;5094610;28;20397;-84
2022/09/27 02:49:09;;;;;;;3.50;3.20;;;17.40;73.70;;;;;;5095098;28;20085;-83
2022/09/27 02:51:56;;;;;;;3.42;3.13;;;17.40;73.30;;;;;;5095202;28;20060;-82
2022/09/27 02:54:31;;;;;;;4.10;3.22;;;17.40;73.70;;;;;;5095089;28;20031;-83
2022/09/27 02:56:59;;;;;;;;;;;17.40;73.40;;;;;;5097578;28;20385;-83
2022/09/27 02:59:39;;;;;;;3.58;3.13;;;17.40;74.10;;;;;;5095182;28;19908;-82
2022/09/27 03:02:33;;;;;;;3.50;3.10;;;17.40;73.40;;;;;;5094606;28;20024;-84
2022/09/27 03:05:04;;;;;;;3.53;3.23;;;17.40;73.80;;;;;;5086957;28;20115;-83
2022/09/27 03:07:30;;;;;;;3.38;3.08;;;17.40;74.00;;;;;;5094641;28;20035;-83
2022/09/27 03:09:56;;;;;;;3.63;3.20;;;17.40;73.50;;;;;;5094808;28;20111;-82
2022/09/27 03:12:26;;;;;;;3.38;3.08;;;17.40;73.50;;;;;;5094809;28;20055;-78
2022/09/27 03:14:55;;;;;;;3.55;3.25;;;17.40;73.50;;;;;;5094268;28;20031;-82
2022/09/27 03:17:21;;;;;;;3.92;3.60;;;17.40;73.60;;;;;;5094727;28;20056;-83
2022/09/27 03:19:47;;;;;;;3.72;3.20;;;17.30;73.50;;;;;;5094752;28;20386;-86
2022/09/27 03:22:13;;;;;;;4.45;3.70;;;17.30;73.60;;;;;;5076299;28;20363;-82
2022/09/27 03:24:39;;;;;;;3.47;3.17;;;17.40;73.70;;;;;;5093932;28;20087;-82
2022/09/27 03:27:05;;;;;;;3.80;3.40;;;17.40;73.70;;;;;;5094141;28;20431;-84
2022/09/27 03:29:31;;;;;;;3.50;3.10;;;17.40;73.80;;;;;;5093772;28;20058;-83
2022/09/27 03:31:57;;;;;;;4.13;3.20;;;17.40;73.80;;;;;;5094587;28;20534;-82
2022/09/27 03:34:23;;;;;;;3.78;3.30;;;17.30;73.80;;;;;;5095210;28;20034;-84
2022/09/27 03:36:49;;;;;;;3.75;3.40;;;17.30;73.90;;;;;;5094925;28;20032;-83
2022/09/27 03:39:15;;;;;;;4.00;3.60;;;17.40;73.90;;;;;;5094673;28;20028;-83
2022/09/27 03:41:40;;;;;;;4.03;3.60;;;17.30;73.90;;;;;;5094154;28;20084;-84
2022/09/27 03:44:07;;;;;;;4.03;2.90;;;17.40;74.00;;;;;;5094134;28;20471;-84
2022/09/27 03:46:33;;;;;;;3.70;3.40;;;17.40;74.00;;;;;;5093656;28;20493;-84
2022/09/27 03:48:58;;;;;;;4.10;3.45;;;17.40;74.00;;;;;;5094125;28;20058;-83
2022/09/27 03:51:24;;;;;;;4.15;3.60;;;17.30;74.00;;;;;;5093128;28;20374;-82
2022/09/27 03:53:50;;;;;;;4.15;3.40;;;17.40;74.00;;;;;;5094209;28;20411;-83
2022/09/27 03:56:16;;;;;;;3.65;3.28;;;17.40;74.10;;;;;;5094045;28;20032;-84
2022/09/27 03:58:42;;;;;;;3.53;3.22;;;17.40;74.10;;;;;;5094216;28;20039;-84
2022/09/27 04:01:08;;;;;;;4.22;3.33;;;17.40;74.10;;;;;;5093195;28;20028;-84
2022/09/27 04:03:35;;;;;;;3.90;3.50;;;17.40;74.10;;;;;;5094052;28;20020;-84
2022/09/27 04:06:02;;;;;;;3.90;3.38;;;17.30;74.10;;;;;;5095348;28;20106;-82
2022/09/27 04:08:29;;;;;;;4.05;3.50;;;17.40;74.20;;;;;;5098880;28;20032;-81
2022/09/27 04:10:55;;;;;;;4.40;4.00;;;17.40;74.20;;;;;;5077886;28;20027;-80
2022/09/27 04:13:21;;;;;;;4.13;3.53;;;17.40;74.40;;;;;;5092575;28;20373;-84
2022/09/27 04:15:47;;;;;;;4.72;3.80;;;17.40;74.70;;;;;;5093449;28;20340;-84
2022/09/27 04:18:13;;;;;;;5.30;3.55;;;17.40;74.80;;;;;;5093028;28;20054;-84
2022/09/27 04:20:39;;;;;;;4.20;3.80;;;17.40;74.70;;;;;;5092954;28;20032;-83
2022/09/27 04:23:05;;;;;;;4.55;3.97;;;17.50;74.80;;;;;;5092854;28;20059;-83
2022/09/27 04:25:33;;;;;;;4.05;3.60;;;17.50;74.70;;;;;;5092668;28;20059;-84
2022/09/27 04:28:01;;;;;;;4.13;3.47;;;17.50;74.70;;;;;;5094774;28;20027;-83
2022/09/27 04:30:30;;;;;;;4.20;3.80;;;17.50;74.70;;;;;;5097199;28;20028;-83
2022/09/27 04:32:55;;;;;;;3.83;3.53;;;17.50;74.70;;;;;;5078600;28;20086;-82
2022/09/27 04:38:05;;;;;;;4.00;3.60;;;17.40;74.60;;;;;;5097090;28;20492;-82
2022/09/27 04:40:34;;;;;;;3.78;3.38;;;17.50;74.60;;;;;;5096953;28;20032;-86
2022/09/27 04:43:00;;;;;;;5.82;3.75;;;17.40;74.50;;;;;;5081711;28;20036;-83
2022/09/27 04:45:26;;;;;;;3.90;3.45;;;17.50;74.60;;;;;;5096917;28;20048;-85
2022/09/27 04:47:51;;;;;;;4.30;3.90;;;17.40;74.60;;;;;;5096319;28;20027;-84
2022/09/27 04:50:19;;;;;;;4.40;4.00;;;17.40;74.60;;;;;;5095738;28;20055;-84
2022/09/27 04:52:52;;;;;;;4.45;3.78;;;17.40;75.20;;;;;;5095859;28;20454;-83
2022/09/27 04:55:19;;;;;;;4.03;3.63;;;17.50;74.70;;;;;;5076120;28;20466;-80
2022/09/27 04:57:45;;;;;;;4.30;3.70;;;17.50;74.70;;;;;;5096595;28;20024;-84
2022/09/27 05:00:11;;;;;;;4.13;3.60;;;17.40;74.60;;;;;;5096543;28;20078;-83
2022/09/27 05:02:37;;;;;;;4.28;3.50;;;17.50;74.60;;;;;;5096136;28;20035;-81
2022/09/27 05:05:03;;;;;;;4.10;3.67;;;17.50;74.60;;;;;;5096289;28;20024;-83
2022/09/27 05:07:28;;;;;;;4.25;3.47;;;17.50;74.60;;;;;;5096194;28;20075;-86
2022/09/27 05:09:55;;;;;;;4.22;3.83;;;17.50;74.60;;;;;;5096654;28;20039;-83
2022/09/27 05:12:21;;;;;;;4.03;3.60;;;17.50;74.50;;;;;;5078336;28;20116;-85
2022/09/27 05:14:47;;;;;;;4.05;3.53;;;17.50;74.50;;;;;;5077635;28;20054;-79
2022/09/27 05:17:13;;;;;;;4.20;3.80;;;17.50;74.50;;;;;;5095739;28;20032;-80
2022/09/27 05:19:39;;;;;;;4.35;3.85;;;17.50;74.50;;;;;;5096138;28;20050;-84
2022/09/27 05:22:05;;;;;;;4.60;3.95;;;17.50;74.50;;;;;;5096585;28;20107;-83
2022/09/27 05:24:32;;;;;;;5.28;4.20;;;17.60;74.50;;;;;;5077588;28;20063;-78
2022/09/27 05:26:59;;;;;;;4.32;3.80;;;17.60;74.50;;;;;;5096276;28;20031;-85
2022/09/27 05:29:26;;;;;;;4.47;3.85;;;17.60;74.50;;;;;;5096884;28;20081;-84
2022/09/27 05:31:51;;;;;;;5.85;4.40;;;17.60;74.50;;;;;;5097132;28;20447;-84
2022/09/27 05:34:19;;;;;;;5.72;4.40;;;17.60;74.40;;;;;;5099616;28;20039;-85
2022/09/27 05:36:49;;;;;;;4.88;3.97;;;17.60;74.40;;;;;;5079473;28;20458;-83
2022/09/27 05:39:18;;;;;;;4.90;4.40;;;17.70;74.50;;;;;;5095968;28;20028;-84
2022/09/27 05:41:45;;;;;;;5.20;4.32;;;17.60;74.40;;;;;;5064117;28;20032;-84
2022/09/27 05:44:14;;;;;;;4.43;4.03;;;17.70;74.40;;;;;;5096365;28;20036;-83
2022/09/27 05:46:40;;;;;;;4.43;4.03;;;17.70;74.40;;;;;;5098240;28;20066;-84
2022/09/27 05:49:06;;;;;;;4.85;4.30;;;17.70;74.30;;;;;;5080250;28;20040;-86
2022/09/27 05:51:41;;;;;;;5.55;4.53;;;17.70;74.20;;;;;;5101304;28;20051;-83
2022/09/27 05:54:08;;;;;;;4.80;4.30;;;17.80;74.30;;;;;;5081508;28;20058;-84
2022/09/27 05:56:34;;;;;;;5.70;4.50;;;17.70;74.20;;;;;;5081795;28;20016;-84
2022/09/27 05:59:00;;;;;;;5.20;4.70;;;17.70;74.20;;;;;;5078880;28;20032;-85
2022/09/27 06:01:26;;;;;;;5.28;4.50;;;17.80;74.30;;;;;;5079919;28;20039;-84
2022/09/27 06:03:53;;;;;;;5.35;4.50;;;17.80;74.30;;;;;;5080613;28;20428;-85
2022/09/27 06:06:21;;;;;;;5.38;4.20;;;17.80;74.30;;;;;;5098297;28;20020;-84
2022/09/27 06:08:48;;;;;;;4.60;4.10;;;17.80;74.30;;;;;;5079091;28;20050;-84
2022/09/27 06:11:14;;;;;;;4.88;4.32;;;17.80;74.30;;;;;;5096373;28;20024;-84
2022/09/27 06:13:40;;;;;;;5.05;4.38;;;17.80;74.30;;;;;;5096948;28;20432;-84
2022/09/27 06:16:09;;;;;;;5.68;4.55;;;17.80;74.30;;;;;;5096183;28;20440;-85
2022/09/27 06:18:35;;;;;;;4.68;4.10;;;17.80;74.30;;;;;;5078114;28;20032;-86
2022/09/27 06:21:02;;;;;;;5.00;4.50;;;17.80;74.90;;;;;;5096951;28;20480;-84
2022/09/27 06:23:31;;;;;;;4.30;3.88;;;17.80;74.30;;;;;;5096234;28;20081;-84
2022/09/27 06:26:04;;;;;;;5.28;4.10;;;17.80;74.30;;;;;;5095767;28;20035;-83
2022/09/27 06:28:30;;;;;;;5.20;4.70;;;17.80;74.30;;;;;;5097500;28;20063;-85
2022/09/27 06:30:56;;;;;;;4.53;4.07;;;17.80;74.40;;;;;;5095781;28;20032;-81
2022/09/27 06:33:21;;;;;;;4.93;4.35;;;17.90;74.40;;;;;;5095968;28;20039;-84
2022/09/27 06:35:48;;;;;;;4.80;4.25;;;17.90;74.30;;;;;;5096112;28;20047;-83
2022/09/27 06:38:16;;;;;;;5.22;4.30;;;17.90;74.30;;;;;;5095435;28;20108;-84
2022/09/27 06:40:46;;;;;;;5.32;4.20;;;17.90;74.30;;;;;;5095592;28;20035;-84
2022/09/27 06:43:15;;;;;;;5.10;4.50;;;17.90;74.40;;;;;;5095801;28;20115;-82
2022/09/27 06:45:41;;;;;;;4.70;3.88;;;17.90;74.30;;;;;;5095258;28;20394;-84
2022/09/27 06:48:09;;;;;;;5.10;4.25;;;17.90;74.40;;;;;;5095356;28;20093;-84
2022/09/27 06:50:37;;;;;;;5.13;4.35;;;17.90;74.40;;;;;;5076357;28;20032;-85
2022/09/27 06:53:04;;;;;;;5.65;4.50;;;18.00;74.40;;;;;;5077193;28;20055;-83
2022/09/27 06:55:30;;;;;;;6.13;4.53;;;18.00;74.40;;;;;;5094994;28;20493;-84
2022/09/27 07:00:46;;;;;;;5.57;4.80;;;18.00;74.40;;;;;;5095041;28;20485;-84
2022/09/27 07:03:13;;;;;;;6.10;5.18;;;18.10;74.40;;;;;;5076978;28;20052;-83
2022/09/27 07:05:42;;;;;;;5.75;5.07;;;18.00;74.40;;;;;;5094833;28;20106;-84
2022/09/27 07:08:10;;;;;;;5.60;4.35;;;18.10;74.40;;;;;;5076794;28;20039;-85
2022/09/27 07:10:38;;;;;;;5.35;4.65;;;18.10;74.40;;;;;;5095034;28;20039;-84
2022/09/27 07:13:06;;;;;;;5.80;4.90;;;18.10;74.40;;;;;;5095140;28;20040;-83
2022/09/27 07:15:31;;;;;;;5.10;4.55;;;18.10;74.30;;;;;;5095128;28;20032;-83
2022/09/27 07:17:58;;;;;;;4.82;4.32;;;18.10;74.20;;;;;;5094993;28;20028;-83
2022/09/27 07:20:25;;;;;;;5.15;4.45;;;18.10;74.20;;;;;;5094880;28;20377;-84
2022/09/27 07:22:52;;;;;;;4.68;4.22;;;18.20;74.20;;;;;;5077194;28;20067;-84
2022/09/27 07:25:18;;;;;;;6.28;4.72;;;18.20;74.30;;;;;;5076479;28;20120;-85
2022/09/27 07:27:44;;;;;;;5.05;4.43;;;18.20;74.30;;;;;;5094594;28;20024;-84
2022/09/27 07:30:11;;;;;;;4.38;3.97;;;18.20;74.20;;;;;;5094588;28;20401;-84
2022/09/27 07:32:37;;;;;;;5.05;4.30;;;18.20;74.20;;;;;;5076672;28;20031;-83
2022/09/27 07:35:04;;;;;;;4.80;3.85;;;18.20;74.20;;;;;;5094388;28;20024;-84
2022/09/27 07:37:36;;;;;;;4.65;4.15;;;18.20;74.20;;;;;;5094255;28;20032;-83
2022/09/27 07:40:06;;;;;;;5.65;4.13;;;18.20;74.20;;;;;;5094653;28;20028;-84
2022/09/27 07:42:32;;;;;;;4.38;3.97;;;18.20;74.20;;;;;;5094344;28;20106;-83
2022/09/27 07:44:58;;;;;;;4.90;4.40;;;18.20;74.30;;;;;;5094193;28;20054;-82
2022/09/27 07:47:25;;;;;;;4.78;4.28;;;18.20;74.20;;;;;;5094115;28;20032;-84
2022/09/27 07:49:54;;;;;;;5.63;4.95;;;18.20;74.30;;;;;;5094061;28;20036;-84
2022/09/27 07:52:20;;;;;;;6.38;5.22;;;18.20;74.30;;;;;;5094464;28;20024;-84
2022/09/27 07:54:46;;;;;;;5.80;4.72;;;18.20;74.30;;;;;;5094131;28;20382;-83
2022/09/27 07:57:13;;;;;;;6.65;5.20;;;18.20;74.40;;;;;;5076116;28;20359;-83
2022/09/27 07:59:39;;;;;;;6.82;4.95;;;18.20;74.50;;;;;;5094231;28;20038;-83
2022/09/27 08:02:10;;;;;;;6.45;5.20;;;18.20;74.40;;;;;;5094203;28;20030;-87
2022/09/27 08:04:35;;;;;;;7.43;5.75;;;18.20;74.50;;;;;;5075623;28;20114;-83
2022/09/27 08:07:01;;;;;;;7.38;5.50;;;18.20;74.50;;;;;;5094209;28;20466;-84
2022/09/27 08:09:27;;;;;;;6.60;5.43;;;18.20;74.50;;;;;;5076650;28;20028;-84
2022/09/27 08:11:56;;;;;;;7.20;5.13;;;18.20;74.50;;;;;;5094087;28;20381;-84
2022/09/27 08:14:22;;;;;;;6.60;5.00;;;18.20;74.50;;;;;;5094460;28;20028;-84
2022/09/27 08:16:50;;;;;;;6.55;5.22;;;18.20;74.50;;;;;;5093959;28;20584;-84
2022/09/27 08:19:17;;;;;;;8.18;5.78;;;18.20;74.50;;;;;;5092353;28;20127;-85
2022/09/27 08:21:42;;;;;;;7.10;5.00;;;18.20;74.60;;;;;;5093067;28;20024;-83
2022/09/27 08:24:08;;;;;;;7.45;4.90;;;18.20;74.70;;;;;;5094326;28;20105;-85
2022/09/27 08:26:34;;;;;;;7.43;4.90;;;18.20;74.70;;;;;;5093707;28;20020;-83
2022/09/27 08:29:00;;;;;;;5.45;4.68;;;18.20;74.70;;;;;;5093769;28;20069;-83
2022/09/27 08:31:25;;;;;;;5.95;4.85;;;18.30;74.80;;;;;;5093674;28;20112;-83
2022/09/27 08:33:52;;;;;;;5.80;5.00;;;18.30;74.70;;;;;;5093446;28;20020;-82
2022/09/27 08:36:19;;;;;;;5.85;4.80;;;18.30;74.70;;;;;;5094320;28;20115;-84
2022/09/27 08:38:48;;;;;;;6.20;4.60;;;18.40;74.70;;;;;;5094167;28;20032;-84
2022/09/27 08:41:48;;;;;;;5.65;4.68;;;18.50;74.70;;;;;;5093761;28;20024;-84
2022/09/27 08:44:38;;;;;;;5.40;4.47;;;18.50;74.70;;;;;;5075796;28;20115;-82
2022/09/27 08:47:22;;;;;;;5.82;4.70;;;18.60;74.50;;;;;;5093968;28;20490;-84
2022/09/27 08:50:01;;;;;;;5.00;4.07;;;18.70;74.60;;;;;;5093919;28;20063;-85
2022/09/27 08:52:42;;;;;;;5.75;4.38;;;18.70;74.40;;;;;;5093262;28;20020;-85
2022/09/27 08:55:46;;;;;;;5.10;4.25;;;18.70;74.20;;;;;;5092678;28;20036;-85
2022/09/27 08:58:34;;;;;;;4.70;4.00;;;18.70;74.20;;;;;;5088253;28;20039;-84
2022/09/27 09:01:03;;;;;;;4.50;4.05;;;18.70;74.20;;;;;;5093429;28;20126;-84
2022/09/27 09:03:32;;;;;;;4.60;4.00;;;18.80;74.20;;;;;;5092636;28;20101;-84
2022/09/27 09:06:16;;;;;;;5.18;4.15;;;18.70;74.10;;;;;;5092669;28;20436;-82
2022/09/27 09:08:59;;;;;;;4.35;3.95;;;18.80;74.30;;;;;;5094660;28;20032;-83
2022/09/27 09:14:41;;;;;;;4.50;3.90;;;18.80;74.40;;;;;;5096447;28;20035;-83
2022/09/27 09:17:19;;;;;;;4.10;3.70;;;18.80;74.20;;;;;;5097244;28;20024;-83
2022/09/27 09:20:48;;;;;;;4.50;3.80;;;18.80;74.40;;;;;;5096763;28;20038;-85
2022/09/27 09:23:32;;;;;;;4.18;3.78;;;18.70;74.60;;;;;;5014838;28;20036;-83
2022/09/27 09:26:02;;;;;;;3.80;3.40;;;18.70;74.40;;;;;;5087682;28;20477;-84
2022/09/27 09:28:57;;;;;;;4.22;3.83;;;18.70;74.40;;;;;;5097055;28;20042;-84
2022/09/27 09:31:29;;;;;;;4.47;3.38;;;18.70;74.50;;;;;;5095692;28;20073;-84
2022/09/27 09:34:02;;;;;;;3.95;3.50;;;18.70;74.40;;;;;;5096754;28;20065;-84
2022/09/27 09:36:34;;;;;;;4.10;3.70;;;18.70;74.40;;;;;;5095540;28;20020;-83
2022/09/27 09:39:41;;;;;;;3.97;3.40;;;18.70;74.50;;;;;;5096671;28;20112;-83
2022/09/27 09:42:13;;;;;;;3.45;3.15;;;18.70;74.50;;;;;;5014563;28;20038;-83
2022/09/27 09:44:57;;;;;;;3.90;3.50;;;18.70;74.40;;;;;;5083468;28;20056;-86
2022/09/27 09:47:36;;;;;;;3.40;3.10;;;18.70;74.50;;;;;;5096748;28;20032;-84
2022/09/27 09:50:31;;;;;;;3.78;3.30;;;18.80;74.50;;;;;;5096796;28;20292;-85
2022/09/27 09:53:19;;;;;;;4.05;3.53;;;18.80;74.50;;;;;;5096260;28;20031;-85
2022/09/27 09:56:04;;;;;;;4.70;3.65;;;18.90;74.50;;;;;;5096702;28;20370;-83
2022/09/27 09:58:50;;;;;;;3.60;3.28;;;19.00;74.20;;;;;;5096182;28;20020;-83
2022/09/27 10:01:27;;;;;;;4.28;3.08;;;19.00;74.20;;;;;;5078760;28;20056;-84
2022/09/27 10:03:56;;;;;;;4.30;3.78;;;19.00;74.60;;;;;;5078425;28;20070;-85
2022/09/27 10:06:23;;;;;;;5.38;3.55;;;19.00;74.00;;;;;;5078350;28;20370;-83
2022/09/27 10:08:53;;;;;;;5.10;4.28;;;19.00;74.00;;;;;;5096040;28;20056;-83
2022/09/27 10:11:25;;;;;;;8.15;5.18;;;19.00;73.90;;;;;;5096120;28;20078;-84
2022/09/27 10:13:54;;;;;;;7.43;4.82;;;19.00;73.90;;;;;;5096107;28;20027;-85
2022/09/27 10:16:20;;;;;;;7.40;4.72;;;19.00;73.80;;;;;;5077787;28;20542;-84
2022/09/27 10:18:48;;;;;;;6.45;4.65;;;19.00;73.80;;;;;;5095753;28;20020;-82
2022/09/27 10:21:44;;;;;;;8.73;5.22;;;19.00;73.80;;;;;;5096026;28;20052;-83
2022/09/27 10:24:15;;;;;;;7.25;4.80;;;19.00;74.00;;;;;;5092845;28;20032;-84
2022/09/27 10:26:43;;;;;;;7.05;4.65;;;19.00;73.90;;;;;;5095371;28;20393;-84
2022/09/27 10:29:18;;;;;;;7.13;4.65;;;18.90;73.80;;;;;;5096070;28;20028;-84
2022/09/27 10:31:46;;;;;;;7.97;5.07;;;19.00;73.90;;;;;;5095383;28;20026;-84
2022/09/27 10:34:36;;;;;;;7.30;4.90;;;18.90;73.80;;;;;;5095518;28;20036;-84
2022/09/27 10:37:14;;;;;;;7.47;4.60;;;18.90;73.80;;;;;;5095285;28;20084;-84
2022/09/27 10:39:40;;;;;;;6.47;4.47;;;18.90;73.80;;;;;;5095915;28;20089;-85
2022/09/27 10:42:29;;;;;;;7.07;4.97;;;18.90;73.80;;;;;;5095162;28;20024;-83
2022/09/27 10:44:55;;;;;;;8.30;5.30;;;18.90;73.90;;;;;;5095503;28;20055;-84
2022/09/27 10:47:24;;;;;;;8.10;4.97;;;18.80;73.80;;;;;;5095814;28;20032;-82
2022/09/27 10:49:51;;;;;;;9.38;5.60;;;18.80;73.80;;;;;;5095549;28;20036;-85
2022/09/27 10:52:23;;;;;;;8.60;5.43;;;18.80;73.80;;;;;;5095682;28;20020;-85
2022/09/27 10:55:03;;;;;;;9.63;5.57;;;18.70;73.80;;;;;;5078382;28;20386;-78
2022/09/27 10:57:30;;;;;;;10.55;6.35;;;18.70;73.90;;;;;;5078281;28;20073;-83
2022/09/27 11:00:06;;;;;;;9.73;5.57;;;18.70;73.90;;;;;;5095358;28;20043;-84
2022/09/27 11:02:36;;;;;;;9.23;5.90;;;18.70;74.00;;;;;;5095217;28;20039;-82
2022/09/27 11:05:05;;;;;;;8.80;5.57;;;18.70;74.00;;;;;;5095058;28;20046;-84
2022/09/27 11:07:31;;;;;;;9.55;6.00;;;18.60;74.00;;;;;;5095218;28;20028;-84
2022/09/27 11:10:03;;;;;;;10.02;5.88;;;18.60;74.10;;;;;;5095069;28;20072;-82
2022/09/27 11:12:30;;;;;;;10.10;5.82;;;18.60;74.10;;;;;;5095513;28;20029;-83
2022/09/27 11:15:01;;;;;;;8.55;5.25;;;18.60;74.70;;;;;;5094875;28;20128;-83
2022/09/27 11:17:46;;;;;;;7.03;4.90;;;18.60;74.10;;;;;;5077236;28;20032;-83
2022/09/27 11:20:28;;;;;;;9.30;5.03;;;18.60;74.20;;;;;;5094820;28;20039;-83
2022/09/27 11:23:27;;;;;;;6.93;4.53;;;18.60;74.20;;;;;;5094828;28;20481;-83
2022/09/27 11:26:21;;;;;;;7.75;5.70;;;18.60;74.10;;;;;;5094927;28;20020;-83
2022/09/27 11:28:56;;;;;;;6.57;4.47;;;18.60;74.10;;;;;;5094606;28;20104;-84
2022/09/27 11:32:08;;;;;;;7.70;4.90;;;18.60;74.10;;;;;;5076454;28;20381;-83
2022/09/27 11:34:45;;;;;;;7.13;4.60;;;18.60;74.20;;;;;;5076454;28;20095;-83
2022/09/27 11:37:21;;;;;;;5.93;4.50;;;18.60;74.00;;;;;;5094206;28;20055;-84
2022/09/27 11:40:11;;;;;;;6.80;4.47;;;18.60;74.00;;;;;;5094553;28;20039;-82
2022/09/27 11:42:49;;;;;;;6.55;4.78;;;18.60;74.10;;;;;;5096355;28;20036;-83
2022/09/27 11:45:26;;;;;;;5.20;3.95;;;18.50;74.10;;;;;;5095655;28;20122;-83
2022/09/27 11:48:08;;;;;;;5.70;4.40;;;18.50;74.10;;;;;;5077737;28;20050;-84
2022/09/27 11:51:04;;;;;;;6.22;4.20;;;18.50;74.30;;;;;;5094988;28;20469;-84
2022/09/27 11:53:45;;;;;;;5.28;4.10;;;18.50;74.40;;;;;;5076263;28;20020;-85
2022/09/27 11:56:45;;;;;;;5.80;4.15;;;18.50;74.30;;;;;;5094793;28;20031;-84
2022/09/27 11:59:44;;;;;;;5.57;4.13;;;18.50;74.40;;;;;;5055277;28;20116;-84
2022/09/27 12:02:15;;;;;;;4.82;4.00;;;18.60;74.40;;;;;;5094111;28;20493;-83
2022/09/27 12:05:06;;;;;;;5.97;4.20;;;18.50;74.30;;;;;;5094031;28;20359;-85
2022/09/27 12:07:44;;;;;;;4.65;4.15;;;18.60;74.40;;;;;;5094295;28;20542;-84
2022/09/27 12:10:15;;;;;;;5.35;4.10;;;18.50;74.30;;;;;;5094331;28;20572;-84
2022/09/27 12:12:45;;;;;;;5.70;4.63;;;18.50;74.40;;;;;;5094468;28;20028;-85
2022/09/27 12:15:35;;;;;;;5.70;4.47;;;18.50;74.40;;;;;;5076240;28;20024;-85
2022/09/27 12:18:31;;;;;;;5.53;4.32;;;18.50;74.50;;;;;;5094573;28;20020;-84
2022/09/27 12:21:02;;;;;;;5.70;4.18;;;18.50;74.50;;;;;;5075958;28;20075;-83
2022/09/27 12:23:46;;;;;;;5.63;4.28;;;18.50;74.40;;;;;;5094441;28;20374;-84
2022/09/27 12:26:14;;;;;;;4.88;3.95;;;18.50;74.60;;;;;;5094303;28;20020;-83
2022/09/27 12:28:44;;;;;;;5.13;3.90;;;18.50;74.50;;;;;;5093917;28;20096;-84
2022/09/27 12:31:28;;;;;;;5.47;4.20;;;18.50;74.50;;;;;;5093498;28;20024;-80
2022/09/27 12:33:56;;;;;;;4.77;4.00;;;18.50;74.60;;;;;;5094055;28;20024;-84
2022/09/27 12:36:28;;;;;;;6.35;4.07;;;18.50;74.60;;;;;;5093689;28;20841;-83
2022/09/27 12:39:46;;;;;;;4.82;4.00;;;18.40;74.60;;;;;;5093661;28;20021;-84
2022/09/27 12:42:26;;;;;;;5.38;4.10;;;18.50;74.80;;;;;;5063651;28;20036;-84
2022/09/27 12:44:52;;;;;;;6.13;4.35;;;18.50;74.70;;;;;;5093912;28;20048;-84
2022/09/27 12:47:56;;;;;;;5.78;4.28;;;18.50;74.70;;;;;;5075677;28;20188;-83
2022/09/27 12:50:45;;;;;;;4.40;3.70;;;18.50;74.90;;;;;;5097178;28;20040;-83
2022/09/27 12:53:52;;;;;;;4.00;3.60;;;18.50;74.90;;;;;;5097848;28;20054;-85
2022/09/27 12:56:46;;;;;;;4.40;4.00;;;18.50;75.00;;;;;;5064984;28;20027;-84
2022/09/27 12:59:49;;;;;;;4.20;3.60;;;18.50;74.80;;;;;;5097410;28;20024;-83
2022/09/27 13:02:17;;;;;;;4.80;4.20;;;18.50;74.80;;;;;;5097291;28;20028;-83
2022/09/27 13:04:49;;;;;;;5.28;4.32;;;18.50;74.70;;;;;;5097187;28;20165;-86
2022/09/27 13:07:29;;;;;;;5.97;4.50;;;18.50;74.70;;;;;;5097988;28;20028;-84
2022/09/27 13:10:12;;;;;;;6.85;5.00;;;18.50;74.70;;;;;;5098178;28;20347;-84
2022/09/27 13:12:40;;;;;;;6.40;5.30;;;18.50;74.80;;;;;;5079492;28;20027;-84
2022/09/27 13:15:21;;;;;;;6.85;5.40;;;18.50;74.80;;;;;;5079000;28;20032;-84
2022/09/27 13:17:48;;;;;;;7.40;5.53;;;18.50;74.90;;;;;;5097105;28;20089;-84
2022/09/27 13:20:35;;;;;;;6.57;5.72;;;18.50;74.90;;;;;;5097140;28;20162;-83
2022/09/27 13:23:22;;;;;;;6.57;5.38;;;18.50;75.00;;;;;;5097261;28;20092;-82
2022/09/27 13:26:02;;;;;;;6.53;5.20;;;18.50;75.00;;;;;;5061393;28;20036;-85
2022/09/27 13:28:31;;;;;;;5.72;4.72;;;18.50;75.10;;;;;;5096985;28;20035;-83
2022/09/27 13:31:00;;;;;;;6.30;5.20;;;18.50;75.10;;;;;;5097105;28;20039;-86